createdAt,value
2019-01-20T00:00:52.511Z,20.40
2019-01-20T00:03:49.236Z,21.27
2019-01-20T00:06:44.977Z,21.37
2019-01-20T00:09:45.852Z,20.40
2019-01-20T00:12:41.389Z,21.40
2019-01-20T00:15:38.129Z,21.70
2019-01-20T00:18:33.923Z,20.10
2019-01-20T00:21:30.198Z,24.33
2019-01-20T00:24:26.806Z,20.50
2019-01-20T00:27:24.611Z,19.40
2019-01-20T00:30:21.227Z,20.77
2019-01-20T00:33:19.003Z,18.90
2019-01-20T00:36:19.707Z,19.30
2019-01-20T00:39:16.283Z,24.30
2019-01-20T00:42:13.982Z,19.05
2019-01-20T00:45:27.205Z,19.30
2019-01-20T00:48:25.841Z,19.97
2019-01-20T00:51:34.315Z,22.07
2019-01-20T00:54:29.664Z,22.17
2019-01-20T00:57:26.703Z,18.80
2019-01-20T01:00:26.379Z,19.80
2019-01-20T01:03:22.305Z,20.87
2019-01-20T01:06:18.826Z,22.70
2019-01-20T01:09:15.148Z,20.07
2019-01-20T01:12:10.683Z,21.50
2019-01-20T01:15:07.241Z,21.73
2019-01-20T01:18:03.902Z,18.33
2019-01-20T01:21:01.402Z,20.80
2019-01-20T01:23:57.231Z,22.37
2019-01-20T01:26:55.066Z,21.03
2019-01-20T01:29:50.693Z,18.60
2019-01-20T01:32:47.306Z,15.00
2019-01-20T01:35:42.849Z,16.13
2019-01-20T01:38:40.718Z,16.90
2019-01-20T01:41:39.161Z,15.37
2019-01-20T01:44:33.081Z,18.03
2019-01-20T01:47:30.341Z,16.43
2019-01-20T01:50:25.174Z,20.47
2019-01-20T01:53:24.195Z,17.27
2019-01-20T01:56:19.661Z,13.87
2019-01-20T01:59:16.395Z,16.37
2019-01-20T02:02:12.911Z,15.83
2019-01-20T02:05:08.379Z,15.30
2019-01-20T02:08:05.151Z,17.37
2019-01-20T02:11:01.909Z,16.17
2019-01-20T02:14:03.511Z,17.80
2019-01-20T02:16:59.191Z,17.30
2019-01-20T02:19:55.481Z,15.90
2019-01-20T02:22:52.041Z,17.20
2019-01-20T02:25:48.559Z,16.57
2019-01-20T02:28:45.297Z,18.93
2019-01-20T02:31:42.059Z,24.07
2019-01-20T02:34:38.805Z,17.20
2019-01-20T02:37:34.474Z,21.23
2019-01-20T02:40:30.612Z,17.90
2019-01-20T02:43:26.692Z,15.30
2019-01-20T02:46:23.421Z,19.43
2019-01-20T02:49:20.164Z,16.70
2019-01-20T02:52:16.947Z,19.90
2019-01-20T02:55:13.540Z,17.83
2019-01-20T02:58:09.987Z,15.37
2019-01-20T03:01:07.780Z,14.60
2019-01-20T03:04:09.338Z,20.33
2019-01-20T03:07:16.170Z,20.17
2019-01-20T03:10:11.883Z,18.13
2019-01-20T03:13:08.641Z,16.10
2019-01-20T03:16:04.191Z,17.17
2019-01-20T03:19:01.068Z,15.93
2019-01-20T03:21:58.056Z,16.30
2019-01-20T03:24:53.675Z,18.77
2019-01-20T03:27:50.143Z,12.47
2019-01-20T03:30:45.616Z,14.13
2019-01-20T03:33:42.203Z,17.27
2019-01-20T03:36:37.352Z,16.40
2019-01-20T03:39:35.087Z,14.20
2019-01-20T03:42:31.786Z,21.40
2019-01-20T03:45:34.252Z,16.20
2019-01-20T03:48:30.203Z,16.70
2019-01-20T03:51:25.170Z,14.13
2019-01-20T03:54:22.821Z,15.40
2019-01-20T03:57:19.398Z,16.37
2019-01-20T04:00:15.877Z,27.53
2019-01-20T04:03:14.523Z,16.63
2019-01-20T04:06:21.229Z,14.57
2019-01-20T04:09:17.989Z,14.97
2019-01-20T04:12:20.494Z,15.90
2019-01-20T04:15:10.175Z,16.30
2019-01-20T04:18:06.339Z,16.77
2019-01-20T04:21:03.833Z,14.50
2019-01-20T04:24:00.754Z,15.37
2019-01-20T04:26:55.524Z,16.10
2019-01-20T04:29:53.237Z,15.10
2019-01-20T04:32:49.916Z,16.23
2019-01-20T04:35:46.444Z,15.67
2019-01-20T04:38:42.951Z,14.30
2019-01-20T04:41:38.661Z,13.53
2019-01-20T04:44:34.497Z,21.77
2019-01-20T04:47:30.097Z,16.10
2019-01-20T04:50:28.607Z,19.10
2019-01-20T04:53:33.833Z,16.50
2019-01-20T04:56:29.779Z,16.20
2019-01-20T04:59:25.252Z,14.97
2019-01-20T05:02:21.715Z,15.47
2019-01-20T05:05:19.312Z,21.30
2019-01-20T05:08:15.813Z,16.60
2019-01-20T05:11:13.540Z,15.33
2019-01-20T05:14:09.095Z,14.70
2019-01-20T05:17:16.917Z,17.10
2019-01-20T05:20:26.909Z,16.70
2019-01-20T05:23:22.654Z,17.37
2019-01-20T05:26:19.168Z,19.15
2019-01-20T05:29:14.409Z,18.57
2019-01-20T05:32:11.046Z,16.50
2019-01-20T05:35:07.722Z,15.10
2019-01-20T05:38:04.252Z,16.12
2019-01-20T05:41:01.294Z,14.70
2019-01-20T05:43:56.164Z,14.93
2019-01-20T05:46:52.856Z,16.37
2019-01-20T05:49:48.577Z,16.40
2019-01-20T05:52:46.245Z,15.32
2019-01-20T05:55:42.780Z,16.27
2019-01-20T05:58:38.317Z,14.40
2019-01-20T06:01:35.996Z,18.37
2019-01-20T06:04:31.510Z,18.30
2019-01-20T06:07:27.402Z,18.03
2019-01-20T06:10:23.698Z,16.83
2019-01-20T06:13:19.400Z,17.53
2019-01-20T06:16:15.886Z,16.50
2019-01-20T06:19:11.558Z,15.80
2019-01-20T06:22:09.709Z,14.77
2019-01-20T06:25:05.300Z,15.67
2019-01-20T06:28:01.828Z,16.60
2019-01-20T06:30:57.652Z,12.10
2019-01-20T06:33:53.197Z,14.60
2019-01-20T06:36:49.672Z,16.20
2019-01-20T06:39:45.356Z,13.90
2019-01-20T06:42:42.594Z,16.80
2019-01-20T06:45:37.970Z,14.77
2019-01-20T06:48:34.740Z,14.43
2019-01-20T06:51:30.825Z,13.47
2019-01-20T06:54:27.387Z,15.93
2019-01-20T06:57:22.891Z,18.15
2019-01-20T07:00:19.628Z,16.57
2019-01-20T07:03:17.569Z,17.40
2019-01-20T07:06:13.075Z,21.10
2019-01-20T07:09:10.671Z,13.83
2019-01-20T07:12:07.414Z,20.43
2019-01-20T07:15:04.239Z,14.87
2019-01-20T07:18:01.060Z,14.50
2019-01-20T07:20:56.528Z,17.27
2019-01-20T07:23:54.277Z,17.50
2019-01-20T07:26:50.788Z,21.27
2019-01-20T07:29:48.392Z,19.23
2019-01-20T07:32:51.380Z,17.07
2019-01-20T07:35:49.151Z,15.40
2019-01-20T07:38:45.819Z,11.60
2019-01-20T07:41:40.846Z,13.33
2019-01-20T07:44:37.428Z,16.73
2019-01-20T07:47:32.290Z,18.60
2019-01-20T07:50:29.738Z,16.50
2019-01-20T07:53:27.270Z,22.53
2019-01-20T07:56:22.756Z,23.90
2019-01-20T07:59:19.252Z,17.40
2019-01-20T08:02:15.752Z,15.60
2019-01-20T08:05:12.586Z,17.67
2019-01-20T08:08:07.920Z,15.73
2019-01-20T08:11:03.511Z,20.00
2019-01-20T08:14:00.592Z,18.87
2019-01-20T08:16:56.816Z,15.83
2019-01-20T08:19:54.123Z,16.73
2019-01-20T08:22:50.626Z,18.20
2019-01-20T08:25:47.205Z,21.23
2019-01-20T08:28:43.974Z,23.17
2019-01-20T08:31:39.476Z,21.75
2019-01-20T08:34:36.008Z,23.33
2019-01-20T08:37:31.681Z,20.32
2019-01-20T08:40:29.771Z,20.93
2019-01-20T08:43:31.698Z,22.30
2019-01-20T08:46:39.697Z,25.83
2019-01-20T08:49:41.380Z,25.63
2019-01-20T08:52:37.914Z,28.47
2019-01-20T08:55:33.586Z,30.63
2019-01-20T08:58:29.986Z,35.83
2019-01-20T09:01:26.788Z,25.93
2019-01-20T09:04:23.450Z,27.47
2019-01-20T09:07:20.166Z,29.37
2019-01-20T09:10:16.690Z,39.10
2019-01-20T09:13:16.499Z,29.53
2019-01-20T09:16:12.763Z,29.87
2019-01-20T09:19:08.822Z,32.17
2019-01-20T09:22:04.582Z,33.67
2019-01-20T09:25:03.066Z,31.90
2019-01-20T09:27:58.060Z,31.47
2019-01-20T09:30:54.798Z,31.50
2019-01-20T09:33:51.397Z,34.53
2019-01-20T09:36:46.902Z,29.83
2019-01-20T09:39:43.133Z,30.50
2019-01-20T09:42:38.301Z,30.50
2019-01-20T09:45:58.082Z,30.93
2019-01-20T09:48:55.768Z,29.77
2019-01-20T09:51:59.018Z,32.80
2019-01-20T09:54:56.545Z,32.07
2019-01-20T09:57:52.077Z,30.00
2019-01-20T10:00:49.781Z,29.43
2019-01-20T10:03:45.528Z,31.87
2019-01-20T10:06:42.258Z,35.60
2019-01-20T10:09:37.798Z,34.20
2019-01-20T10:12:34.249Z,33.20
2019-01-20T10:15:33.097Z,31.80
2019-01-20T10:18:29.874Z,31.93
2019-01-20T10:21:26.424Z,30.20
2019-01-20T10:24:22.160Z,44.53
2019-01-20T10:27:19.917Z,33.33
2019-01-20T10:30:15.631Z,32.97
2019-01-20T10:33:12.322Z,37.23
2019-01-20T10:36:16.581Z,30.83
2019-01-20T10:39:14.056Z,32.20
2019-01-20T10:42:10.838Z,27.82
2019-01-20T10:45:07.637Z,35.50
2019-01-20T10:48:03.232Z,36.43
2019-01-20T10:50:58.786Z,32.07
2019-01-20T10:53:55.387Z,38.02
2019-01-20T10:56:50.851Z,31.67
2019-01-20T10:59:47.387Z,36.53
2019-01-20T11:02:43.187Z,34.57
2019-01-20T11:05:41.797Z,32.23
2019-01-20T11:08:38.136Z,45.40
2019-01-20T11:11:33.448Z,36.83
2019-01-20T11:14:30.195Z,38.47
2019-01-20T11:17:27.827Z,37.55
2019-01-20T11:20:25.514Z,38.47
2019-01-20T11:23:21.966Z,36.90
2019-01-20T11:26:18.649Z,35.33
2019-01-20T11:29:14.599Z,41.77
2019-01-20T11:32:10.061Z,32.30
2019-01-20T11:35:06.982Z,37.67
2019-01-20T11:38:03.669Z,31.50
2019-01-20T11:41:00.409Z,37.13
2019-01-20T11:43:56.128Z,34.87
2019-01-20T11:46:52.808Z,37.43
2019-01-20T11:49:49.558Z,32.93
2019-01-20T11:52:45.218Z,35.23
2019-01-20T11:55:43.865Z,38.00
2019-01-20T11:58:39.634Z,36.10
2019-01-20T12:01:47.606Z,37.67
2019-01-20T12:04:43.947Z,35.00
2019-01-20T12:07:39.950Z,34.70
2019-01-20T12:10:37.041Z,39.08
2019-01-20T12:13:42.568Z,32.87
2019-01-20T12:16:39.665Z,37.37
2019-01-20T12:19:36.693Z,37.15
2019-01-20T12:22:33.255Z,33.10
2019-01-20T12:25:30.270Z,37.13
2019-01-20T12:28:27.916Z,31.67
2019-01-20T12:31:24.692Z,33.10
2019-01-20T12:34:21.077Z,32.10
2019-01-20T12:37:18.764Z,36.60
2019-01-20T12:40:14.377Z,35.93
2019-01-20T12:43:11.061Z,37.77
2019-01-20T12:46:06.643Z,34.87
2019-01-20T12:49:06.941Z,30.50
2019-01-20T12:52:04.746Z,35.20
2019-01-20T12:55:07.382Z,32.42
2019-01-20T12:58:05.101Z,37.40
2019-01-20T13:01:00.675Z,36.30
2019-01-20T13:03:57.421Z,36.73
2019-01-20T13:06:54.012Z,37.43
2019-01-20T13:09:50.809Z,36.45
2019-01-20T13:12:45.971Z,33.50
2019-01-20T13:15:43.484Z,33.60
2019-01-20T13:18:40.109Z,37.80
2019-01-20T13:21:38.437Z,35.10
2019-01-20T13:24:34.332Z,35.10
2019-01-20T13:27:32.175Z,33.70
2019-01-20T13:30:29.115Z,33.27
2019-01-20T13:33:25.661Z,31.30
2019-01-20T13:36:22.180Z,38.80
2019-01-20T13:39:18.992Z,32.20
2019-01-20T13:42:14.496Z,35.83
2019-01-20T13:45:10.987Z,35.63
2019-01-20T13:48:08.169Z,38.53
2019-01-20T13:51:04.712Z,38.13
2019-01-20T13:54:00.261Z,37.30
2019-01-20T13:56:58.011Z,36.23
2019-01-20T13:59:53.685Z,34.60
2019-01-20T14:02:50.266Z,31.73
2019-01-20T14:05:46.085Z,34.10
2019-01-20T14:08:44.318Z,37.77
2019-01-20T14:11:39.553Z,35.73
2019-01-20T14:14:35.660Z,38.53
2019-01-20T14:17:38.723Z,37.97
2019-01-20T14:20:49.075Z,41.73
2019-01-20T14:23:44.567Z,41.10
2019-01-20T14:26:41.247Z,48.60
2019-01-20T14:29:36.130Z,41.77
2019-01-20T14:32:32.805Z,38.90
2019-01-20T14:35:29.492Z,36.80
2019-01-20T14:38:27.397Z,41.40
2019-01-20T14:41:23.365Z,40.27
2019-01-20T14:44:19.735Z,49.23
2019-01-20T14:47:15.565Z,53.97
2019-01-20T14:50:11.972Z,88.87
2019-01-20T14:53:08.496Z,110.23
2019-01-20T14:56:04.909Z,91.87
2019-01-20T14:59:01.511Z,80.23
2019-01-20T15:01:58.130Z,66.50
2019-01-20T15:04:53.931Z,46.10
2019-01-20T15:07:49.996Z,42.23
2019-01-20T15:10:45.507Z,38.10
2019-01-20T15:13:42.199Z,35.90
2019-01-20T15:16:37.799Z,37.00
2019-01-20T15:19:38.442Z,40.27
2019-01-20T15:22:35.355Z,35.27
2019-01-20T15:25:33.205Z,41.03
2019-01-20T15:28:29.486Z,40.90
2019-01-20T15:31:26.983Z,38.08
2019-01-20T15:34:22.918Z,34.90
2019-01-20T15:37:19.733Z,37.60
2019-01-20T15:40:21.892Z,38.53
2019-01-20T15:43:17.886Z,36.77
2019-01-20T15:46:17.937Z,43.00
2019-01-20T15:49:16.786Z,38.33
2019-01-20T15:52:12.570Z,38.10
2019-01-20T15:55:09.368Z,32.63
2019-01-20T15:58:05.846Z,36.47
2019-01-20T16:01:02.435Z,44.88
2019-01-20T16:04:01.661Z,35.60
2019-01-20T16:06:58.442Z,39.17
2019-01-20T16:09:55.351Z,35.77
2019-01-20T16:12:52.011Z,35.10
2019-01-20T16:15:49.062Z,34.30
2019-01-20T16:18:46.209Z,36.60
2019-01-20T16:21:43.442Z,38.50
2019-01-20T16:24:40.831Z,38.48
2019-01-20T16:27:38.231Z,34.90
2019-01-20T16:30:37.720Z,38.80
2019-01-20T16:33:35.428Z,34.60
2019-01-20T16:36:38.276Z,37.30
2019-01-20T16:39:37.935Z,35.80
2019-01-20T16:42:34.870Z,38.33
2019-01-20T16:45:32.987Z,38.70
2019-01-20T16:48:27.432Z,43.00
2019-01-20T16:51:24.051Z,37.27
2019-01-20T16:54:20.735Z,43.40
2019-01-20T16:57:16.233Z,42.90
2019-01-20T17:00:13.092Z,40.00
2019-01-20T17:03:08.060Z,42.80
2019-01-20T17:06:04.763Z,42.83
2019-01-20T17:09:00.368Z,49.73
2019-01-20T17:11:57.306Z,45.05
2019-01-20T17:14:52.940Z,40.60
2019-01-20T17:17:49.695Z,47.23
2019-01-20T17:20:46.425Z,45.20
2019-01-20T17:23:43.336Z,42.90
2019-01-20T17:26:39.387Z,41.40
2019-01-20T17:29:36.635Z,46.07
2019-01-20T17:32:33.456Z,44.60
2019-01-20T17:35:30.248Z,42.20
2019-01-20T17:38:26.149Z,40.00
2019-01-20T17:41:35.149Z,45.17
2019-01-20T17:44:31.990Z,46.73
2019-01-20T17:47:28.834Z,48.23
2019-01-20T17:50:28.964Z,46.33
2019-01-20T17:53:25.631Z,41.27
2019-01-20T17:56:23.386Z,49.03
2019-01-20T17:59:26.631Z,44.53
2019-01-20T18:02:22.192Z,48.90
2019-01-20T18:05:19.229Z,47.53
2019-01-20T18:08:15.053Z,45.97
2019-01-20T18:11:13.856Z,44.35
2019-01-20T18:14:08.932Z,42.97
2019-01-20T18:17:05.802Z,45.60
2019-01-20T18:20:02.539Z,45.60
2019-01-20T18:22:59.390Z,45.33
2019-01-20T18:25:55.285Z,50.60
2019-01-20T18:28:52.882Z,49.57
2019-01-20T18:31:48.679Z,45.60
2019-01-20T18:34:46.250Z,51.80
2019-01-20T18:37:42.231Z,41.60
2019-01-20T18:40:38.928Z,45.15
2019-01-20T18:43:35.344Z,52.80
2019-01-20T18:46:32.241Z,46.23
2019-01-20T18:49:29.462Z,50.70
2019-01-20T18:52:32.586Z,42.67
2019-01-20T18:55:39.524Z,49.48
2019-01-20T18:58:36.565Z,44.80
2019-01-20T19:01:34.343Z,44.67
2019-01-20T19:04:31.084Z,52.70
2019-01-20T19:07:26.419Z,48.37
2019-01-20T19:10:23.302Z,48.70
2019-01-20T19:13:19.031Z,52.10
2019-01-20T19:16:15.733Z,48.00
2019-01-20T19:19:11.385Z,53.93
2019-01-20T19:22:10.332Z,47.60
2019-01-20T19:25:07.123Z,47.87
2019-01-20T19:28:02.983Z,49.80
2019-01-20T19:31:01.845Z,48.67
2019-01-20T19:33:58.406Z,46.87
2019-01-20T19:36:55.043Z,45.93
2019-01-20T19:39:51.411Z,51.95
2019-01-20T19:42:47.848Z,45.97
2019-01-20T19:45:43.739Z,46.30
2019-01-20T19:48:42.815Z,46.37
2019-01-20T19:51:39.811Z,53.10
2019-01-20T19:54:35.956Z,47.50
2019-01-20T19:57:33.098Z,52.50
2019-01-20T20:00:40.031Z,50.27
2019-01-20T20:03:37.863Z,50.10
2019-01-20T20:06:33.812Z,50.33
2019-01-20T20:09:35.658Z,46.60
2019-01-20T20:12:35.537Z,50.30
2019-01-20T20:15:33.290Z,53.53
2019-01-20T20:18:33.684Z,51.77
2019-01-20T20:21:30.300Z,54.47
2019-01-20T20:24:26.856Z,47.33
2019-01-20T20:27:23.022Z,46.60
2019-01-20T20:30:19.708Z,51.07
2019-01-20T20:33:18.310Z,47.03
2019-01-20T20:36:13.316Z,47.20
2019-01-20T20:39:10.457Z,46.83
2019-01-20T20:42:06.144Z,50.77
2019-01-20T20:45:03.298Z,49.30
2019-01-20T20:48:01.326Z,47.73
2019-01-20T20:50:57.524Z,49.20
2019-01-20T20:53:55.377Z,50.27
2019-01-20T20:56:51.425Z,51.53
2019-01-20T20:59:48.482Z,47.43
2019-01-20T21:02:44.478Z,48.90
2019-01-20T21:05:41.038Z,47.53
2019-01-20T21:08:36.581Z,50.77
2019-01-20T21:11:38.263Z,51.17
2019-01-20T21:14:34.276Z,55.63
2019-01-20T21:17:30.898Z,55.07
2019-01-20T21:20:27.843Z,47.20
2019-01-20T21:23:25.528Z,51.83
2019-01-20T21:26:21.059Z,47.77
2019-01-20T21:29:17.706Z,51.55
2019-01-20T21:32:13.662Z,52.73
2019-01-20T21:35:11.132Z,51.63
2019-01-20T21:38:07.156Z,48.48
2019-01-20T21:41:04.164Z,42.43
2019-01-20T21:44:00.882Z,51.90
2019-01-20T21:46:57.697Z,52.00
2019-01-20T21:49:53.452Z,58.20
2019-01-20T21:52:50.105Z,54.47
2019-01-20T21:55:44.752Z,50.63
2019-01-20T21:58:41.258Z,47.67
2019-01-20T22:01:36.986Z,55.57
2019-01-20T22:04:34.551Z,48.87
2019-01-20T22:07:31.229Z,49.73
2019-01-20T22:10:28.964Z,54.23
2019-01-20T22:13:25.379Z,53.93
2019-01-20T22:16:21.838Z,47.97
2019-01-20T22:19:17.417Z,52.30
2019-01-20T22:22:12.973Z,49.67
2019-01-20T22:25:15.513Z,52.30
2019-01-20T22:28:13.011Z,54.80
2019-01-20T22:31:09.763Z,51.73
2019-01-20T22:34:06.083Z,46.80
2019-01-20T22:37:03.908Z,49.20
2019-01-20T22:39:59.441Z,49.87
2019-01-20T22:42:56.228Z,55.03
2019-01-20T22:45:52.324Z,50.80
2019-01-20T22:48:49.099Z,53.60
2019-01-20T22:51:44.567Z,46.13
2019-01-20T22:54:42.147Z,53.80
2019-01-20T22:57:37.685Z,54.07
2019-01-20T23:01:03.134Z,51.33
2019-01-20T23:03:59.567Z,52.43
2019-01-20T23:06:55.324Z,45.43
2019-01-20T23:09:51.809Z,45.03
2019-01-20T23:12:46.433Z,46.67
2019-01-20T23:15:42.503Z,49.30
2019-01-20T23:18:37.995Z,48.00
2019-01-20T23:21:33.644Z,46.33
2019-01-20T23:24:41.358Z,44.50
2019-01-20T23:27:38.944Z,45.57
2019-01-20T23:30:34.314Z,41.20
2019-01-20T23:33:31.037Z,50.50
2019-01-20T23:36:27.829Z,43.35
2019-01-20T23:39:24.981Z,46.67
2019-01-20T23:42:20.795Z,43.10
2019-01-20T23:45:17.770Z,45.10
2019-01-20T23:48:12.707Z,47.20
2019-01-20T23:51:09.163Z,45.37
2019-01-20T23:54:04.794Z,47.47
2019-01-20T23:57:01.349Z,47.57
2019-01-20T23:59:57.059Z,42.17
